createdAt,value
2023-05-14T00:01:20.568Z,6.57
2023-05-14T00:03:47.468Z,6.30
2023-05-14T00:06:15.079Z,6.55
2023-05-14T00:08:41.855Z,5.80
2023-05-14T00:11:09.105Z,6.47
2023-05-14T00:13:36.405Z,6.10
2023-05-14T00:16:03.307Z,5.68
2023-05-14T00:18:30.450Z,5.88
2023-05-14T00:20:57.598Z,6.65
2023-05-14T00:23:24.475Z,6.93
2023-05-14T00:25:51.274Z,7.22
2023-05-14T00:28:18.108Z,7.22
2023-05-14T00:30:45.068Z,6.28
2023-05-14T00:33:11.948Z,6.60
2023-05-14T00:35:38.761Z,6.78
2023-05-14T00:38:06.134Z,7.28
2023-05-14T00:40:33.020Z,6.22
2023-05-14T00:43:00.457Z,6.80
2023-05-14T00:45:27.434Z,6.05
2023-05-14T00:47:54.908Z,6.70
2023-05-14T00:50:22.237Z,6.22
2023-05-14T00:52:49.542Z,6.05
2023-05-14T00:55:16.728Z,7.10
2023-05-14T00:57:44.038Z,5.95
2023-05-14T01:00:11.138Z,5.68
2023-05-14T01:02:38.254Z,5.60
2023-05-14T01:05:05.439Z,5.85
2023-05-14T01:07:35.252Z,6.35
2023-05-14T01:10:28.124Z,6.28
2023-05-14T01:12:55.090Z,6.35
2023-05-14T01:15:24.242Z,6.22
2023-05-14T01:17:56.676Z,6.47
2023-05-14T01:20:23.902Z,7.50
2023-05-14T01:22:50.865Z,6.80
2023-05-14T01:25:17.869Z,6.70
2023-05-14T01:28:15.562Z,7.10
2023-05-14T01:30:58.268Z,6.47
2023-05-14T01:33:26.173Z,6.13
2023-05-14T01:35:54.321Z,7.15
2023-05-14T01:38:21.964Z,6.53
2023-05-14T01:40:49.280Z,6.05
2023-05-14T01:43:16.436Z,6.32
2023-05-14T01:45:43.934Z,6.63
2023-05-14T01:48:11.087Z,6.88
2023-05-14T01:50:38.175Z,6.38
2023-05-14T01:53:04.939Z,6.72
2023-05-14T01:55:31.848Z,7.05
2023-05-14T01:57:58.690Z,7.13
2023-05-14T02:00:28.249Z,6.90
2023-05-14T02:02:55.098Z,7.10
2023-05-14T02:05:23.510Z,6.72
2023-05-14T02:07:50.245Z,6.78
2023-05-14T02:10:17.058Z,6.80
2023-05-14T02:12:49.591Z,6.88
2023-05-14T02:15:16.816Z,6.97
2023-05-14T02:17:43.694Z,6.63
2023-05-14T02:20:11.515Z,7.68
2023-05-14T02:22:46.269Z,7.22
2023-05-14T02:25:13.168Z,7.43
2023-05-14T02:27:40.237Z,6.90
2023-05-14T02:30:07.698Z,7.03
2023-05-14T02:32:34.762Z,7.30
2023-05-14T02:35:01.898Z,6.60
2023-05-14T02:37:28.789Z,6.80
2023-05-14T02:39:55.540Z,7.28
2023-05-14T02:42:22.890Z,7.53
2023-05-14T02:44:49.796Z,7.15
2023-05-14T02:47:16.603Z,7.38
2023-05-14T02:49:43.473Z,7.97
2023-05-14T02:52:10.278Z,7.68
2023-05-14T02:54:37.096Z,7.32
2023-05-14T02:57:03.988Z,7.20
2023-05-14T02:59:31.561Z,7.35
2023-05-14T03:01:58.882Z,7.13
2023-05-14T03:04:26.016Z,6.78
2023-05-14T03:06:52.783Z,7.35
2023-05-14T03:09:20.070Z,7.88
2023-05-14T03:11:46.811Z,7.20
2023-05-14T03:14:13.624Z,7.97
2023-05-14T03:16:42.278Z,7.68
2023-05-14T03:19:09.950Z,7.13
2023-05-14T03:21:36.887Z,7.78
2023-05-14T03:24:03.748Z,8.32
2023-05-14T03:26:30.469Z,7.53
2023-05-14T03:28:57.225Z,7.35
2023-05-14T03:31:24.988Z,7.38
2023-05-14T03:33:51.969Z,7.55
2023-05-14T03:36:18.778Z,8.18
2023-05-14T03:38:47.937Z,7.20
2023-05-14T03:41:15.477Z,7.53
2023-05-14T03:43:42.740Z,7.35
2023-05-14T03:46:09.579Z,7.40
2023-05-14T03:48:36.479Z,6.88
2023-05-14T03:51:04.625Z,6.80
2023-05-14T03:53:31.377Z,8.25
2023-05-14T03:55:58.143Z,7.88
2023-05-14T03:58:25.761Z,8.00
2023-05-14T04:00:53.714Z,8.02
2023-05-14T04:03:20.841Z,7.68
2023-05-14T04:05:47.706Z,7.45
2023-05-14T04:08:14.407Z,7.40
2023-05-14T04:10:42.759Z,7.03
2023-05-14T04:13:09.561Z,9.20
2023-05-14T04:15:39.415Z,8.13
2023-05-14T04:18:06.275Z,7.40
2023-05-14T04:20:33.117Z,8.20
2023-05-14T04:23:00.089Z,7.70
2023-05-14T04:25:26.970Z,7.93
2023-05-14T04:27:53.792Z,8.13
2023-05-14T04:30:21.106Z,7.60
2023-05-14T04:32:48.061Z,7.60
2023-05-14T04:35:14.821Z,7.53
2023-05-14T04:37:41.682Z,7.97
2023-05-14T04:40:11.272Z,8.23
2023-05-14T04:42:38.762Z,7.93
2023-05-14T04:45:06.543Z,9.38
2023-05-14T04:47:33.337Z,8.15
2023-05-14T04:50:00.181Z,9.35
2023-05-14T04:52:27.107Z,7.70
2023-05-14T04:54:54.110Z,8.35
2023-05-14T04:57:21.159Z,8.82
2023-05-14T04:59:48.000Z,8.18
2023-05-14T05:02:14.756Z,8.40
2023-05-14T05:04:41.560Z,7.90
2023-05-14T05:07:08.347Z,9.98
2023-05-14T05:09:35.062Z,8.50
2023-05-14T05:12:02.001Z,8.45
2023-05-14T05:14:28.895Z,8.75
2023-05-14T05:16:55.804Z,8.82
2023-05-14T05:19:29.141Z,8.45
2023-05-14T05:22:02.861Z,9.00
2023-05-14T05:24:29.577Z,9.13
2023-05-14T05:26:56.607Z,9.13
2023-05-14T05:29:24.952Z,8.77
2023-05-14T05:31:51.801Z,8.32
2023-05-14T05:34:19.507Z,8.75
2023-05-14T05:36:46.249Z,9.25
2023-05-14T05:39:12.960Z,10.35
2023-05-14T05:41:39.650Z,9.07
2023-05-14T05:44:06.671Z,8.60
2023-05-14T05:46:33.412Z,8.00
2023-05-14T05:49:00.217Z,8.82
2023-05-14T05:51:26.899Z,8.95
2023-05-14T05:53:53.636Z,9.38
2023-05-14T05:56:21.115Z,8.38
2023-05-14T05:58:48.038Z,8.70
2023-05-14T06:01:14.827Z,9.05
2023-05-14T06:03:41.938Z,9.60
2023-05-14T06:06:09.239Z,9.00
2023-05-14T06:08:36.142Z,9.13
2023-05-14T06:11:02.889Z,8.00
2023-05-14T06:13:29.604Z,9.27
2023-05-14T06:15:56.316Z,9.13
2023-05-14T06:18:23.084Z,8.90
2023-05-14T06:20:49.906Z,9.07
2023-05-14T06:23:16.731Z,9.55
2023-05-14T06:25:43.578Z,9.75
2023-05-14T06:28:10.482Z,9.73
2023-05-14T06:30:37.260Z,9.55
2023-05-14T06:33:04.119Z,8.90
2023-05-14T06:35:31.134Z,9.65
2023-05-14T06:37:57.910Z,9.35
2023-05-14T06:40:24.953Z,10.07
2023-05-14T06:42:51.966Z,10.25
2023-05-14T06:45:19.739Z,9.27
2023-05-14T06:47:46.526Z,9.98
2023-05-14T06:50:13.356Z,9.98
2023-05-14T06:52:40.112Z,9.80
2023-05-14T06:55:07.302Z,10.50
2023-05-14T06:57:34.693Z,10.45
2023-05-14T07:00:03.291Z,8.20
2023-05-14T07:02:32.266Z,10.20
2023-05-14T07:04:59.105Z,9.90
2023-05-14T07:07:25.865Z,10.77
2023-05-14T07:09:52.639Z,10.45
2023-05-14T07:12:19.369Z,9.98
2023-05-14T07:14:46.594Z,9.95
2023-05-14T07:17:13.320Z,10.45
2023-05-14T07:19:40.407Z,11.30
2023-05-14T07:22:07.183Z,11.23
2023-05-14T07:24:33.884Z,10.90
2023-05-14T07:27:01.855Z,11.73
2023-05-14T07:29:30.115Z,12.10
2023-05-14T07:31:56.817Z,11.07
2023-05-14T07:34:23.526Z,10.52
2023-05-14T07:36:50.322Z,10.50
2023-05-14T07:39:17.199Z,11.80
2023-05-14T07:41:44.163Z,12.00
2023-05-14T07:44:10.899Z,11.48
2023-05-14T07:46:37.668Z,10.98
2023-05-14T07:49:04.466Z,11.05
2023-05-14T07:51:33.315Z,12.38
2023-05-14T07:54:00.594Z,11.68
2023-05-14T07:56:27.346Z,12.15
2023-05-14T07:58:54.082Z,12.70
2023-05-14T08:01:20.812Z,11.13
2023-05-14T08:03:48.417Z,12.38
2023-05-14T08:06:15.241Z,12.05
2023-05-14T08:08:41.978Z,11.73
2023-05-14T08:11:08.803Z,12.18
2023-05-14T08:13:35.678Z,11.82
2023-05-14T08:16:02.846Z,12.27
2023-05-14T08:18:29.620Z,10.10
2023-05-14T08:20:56.513Z,11.07
2023-05-14T08:23:23.345Z,11.75
2023-05-14T08:25:50.414Z,11.50
2023-05-14T08:28:17.284Z,10.30
2023-05-14T08:30:44.166Z,11.50
2023-05-14T08:33:11.014Z,10.63
2023-05-14T08:35:38.076Z,11.05
2023-05-14T08:38:04.893Z,9.07
2023-05-14T08:40:31.899Z,12.10
2023-05-14T08:42:58.844Z,12.13
2023-05-14T08:45:30.090Z,11.73
2023-05-14T08:47:57.711Z,12.00
2023-05-14T08:50:25.787Z,11.00
2023-05-14T08:52:53.340Z,11.63
2023-05-14T08:55:20.377Z,10.27
2023-05-14T08:57:47.185Z,10.52
2023-05-14T09:00:15.036Z,10.30
2023-05-14T09:02:42.557Z,9.88
2023-05-14T09:05:09.970Z,9.65
2023-05-14T09:07:36.832Z,9.95
2023-05-14T09:10:04.136Z,10.32
2023-05-14T09:12:31.476Z,9.85
2023-05-14T09:14:58.222Z,11.25
2023-05-14T09:17:26.905Z,11.35
2023-05-14T09:19:53.717Z,9.88
2023-05-14T09:22:20.932Z,11.20
2023-05-14T09:25:02.588Z,9.05
2023-05-14T09:27:30.314Z,11.00
2023-05-14T09:30:04.767Z,10.00
2023-05-14T09:32:45.852Z,11.02
2023-05-14T09:35:15.727Z,11.35
2023-05-14T09:37:43.907Z,11.75
2023-05-14T09:40:11.997Z,10.52
2023-05-14T09:42:39.284Z,11.60
2023-05-14T09:45:08.008Z,10.38
2023-05-14T09:47:35.063Z,11.75
2023-05-14T09:50:02.047Z,10.45
2023-05-14T09:52:28.784Z,12.23
2023-05-14T09:54:55.571Z,11.48
2023-05-14T09:57:22.334Z,11.38
2023-05-14T09:59:49.029Z,10.38
2023-05-14T10:02:38.321Z,9.00
2023-05-14T10:05:06.448Z,10.43
2023-05-14T10:07:53.621Z,11.75
2023-05-14T10:10:21.902Z,10.90
2023-05-14T10:12:53.444Z,11.00
2023-05-14T10:15:24.292Z,11.00
2023-05-14T10:17:56.436Z,11.95
2023-05-14T10:20:23.623Z,10.05
2023-05-14T10:22:51.333Z,11.05
2023-05-14T10:25:18.279Z,10.70
2023-05-14T10:27:45.211Z,10.43
2023-05-14T10:30:12.928Z,11.63
2023-05-14T10:32:41.874Z,11.77
2023-05-14T10:35:20.699Z,10.85
2023-05-14T10:37:47.758Z,10.75
2023-05-14T10:40:14.604Z,11.50
2023-05-14T10:42:46.385Z,12.00
2023-05-14T10:45:14.394Z,11.27
2023-05-14T10:47:45.834Z,11.70
2023-05-14T10:50:14.376Z,11.25
2023-05-14T10:52:44.735Z,11.70
2023-05-14T10:55:15.387Z,11.00
2023-05-14T10:57:43.914Z,11.40
2023-05-14T11:00:11.340Z,10.90
2023-05-14T11:02:40.276Z,9.30
2023-05-14T11:05:13.762Z,9.27
2023-05-14T11:07:42.737Z,9.82
2023-05-14T11:10:11.567Z,8.75
2023-05-14T11:12:40.881Z,10.13
2023-05-14T11:15:09.726Z,9.77
2023-05-14T11:17:37.760Z,8.73
2023-05-14T11:20:07.970Z,9.88
2023-05-14T11:22:35.676Z,9.02
2023-05-14T11:25:02.499Z,9.77
2023-05-14T11:27:29.770Z,8.70
2023-05-14T11:29:56.497Z,8.93
2023-05-14T11:32:23.819Z,9.73
2023-05-14T11:34:51.196Z,9.50
2023-05-14T11:37:18.247Z,8.77
2023-05-14T11:39:50.561Z,8.73
2023-05-14T11:42:18.695Z,8.90
2023-05-14T11:44:50.163Z,8.27
2023-05-14T11:47:18.410Z,8.23
2023-05-14T11:49:45.768Z,9.15
2023-05-14T11:52:14.816Z,9.00
2023-05-14T11:54:42.957Z,7.75
2023-05-14T11:57:12.563Z,8.05
2023-05-14T11:59:39.991Z,7.85
2023-05-14T12:02:10.740Z,7.47
2023-05-14T12:04:37.485Z,7.28
2023-05-14T12:07:15.550Z,6.68
2023-05-14T12:09:49.240Z,7.30
2023-05-14T12:12:20.693Z,8.07
2023-05-14T12:14:48.371Z,7.15
2023-05-14T12:17:17.407Z,7.72
2023-05-14T12:19:46.466Z,7.18
2023-05-14T12:22:31.449Z,7.25
2023-05-14T12:24:59.318Z,8.15
2023-05-14T12:27:27.334Z,6.63
2023-05-14T12:30:20.028Z,7.10
2023-05-14T12:32:52.740Z,6.82
2023-05-14T12:35:21.316Z,6.68
2023-05-14T12:37:48.123Z,7.25
2023-05-14T12:40:14.907Z,7.15
2023-05-14T12:42:41.621Z,8.68
2023-05-14T12:45:08.804Z,7.57
2023-05-14T12:47:37.049Z,6.80
2023-05-14T12:50:04.918Z,8.05
2023-05-14T12:55:01.735Z,7.93
2023-05-14T12:57:29.791Z,8.15
2023-05-14T12:59:57.210Z,7.70
2023-05-14T13:02:23.958Z,7.57
2023-05-14T13:04:50.756Z,7.35
2023-05-14T13:07:17.459Z,7.45
2023-05-14T13:09:44.165Z,7.72
2023-05-14T13:12:10.939Z,6.90
2023-05-14T13:14:37.707Z,7.35
2023-05-14T13:17:05.373Z,7.07
2023-05-14T13:19:32.126Z,7.93
2023-05-14T13:21:59.035Z,7.45
2023-05-14T13:24:25.939Z,7.38
2023-05-14T13:26:52.662Z,7.10
2023-05-14T13:29:19.474Z,7.35
2023-05-14T13:31:46.252Z,6.10
2023-05-14T13:34:13.109Z,6.47
2023-05-14T13:36:40.717Z,6.32
2023-05-14T13:39:07.673Z,6.63
2023-05-14T13:41:37.956Z,6.18
2023-05-14T13:44:05.519Z,6.35
2023-05-14T13:46:32.352Z,6.82
2023-05-14T13:48:59.118Z,7.05
2023-05-14T13:51:26.083Z,8.45
2023-05-14T13:56:19.605Z,7.03
2023-05-14T13:58:46.342Z,6.50
2023-05-14T14:01:12.988Z,7.43
2023-05-14T14:03:39.765Z,7.47
2023-05-14T14:06:06.431Z,6.20
2023-05-14T14:08:33.173Z,6.28
2023-05-14T14:11:00.130Z,5.57
2023-05-14T14:13:27.887Z,5.28
2023-05-14T14:15:54.688Z,6.13
2023-05-14T14:18:21.510Z,5.65
2023-05-14T14:20:48.399Z,6.18
2023-05-14T14:23:15.145Z,5.80
2023-05-14T14:25:42.179Z,6.60
2023-05-14T14:28:08.844Z,5.53
2023-05-14T14:30:35.614Z,5.70
2023-05-14T14:33:02.401Z,5.28
2023-05-14T14:35:30.663Z,5.40
2023-05-14T14:37:57.505Z,5.50
2023-05-14T14:40:24.508Z,5.47
2023-05-14T14:42:51.262Z,5.10
2023-05-14T14:45:17.938Z,5.68
2023-05-14T14:47:46.327Z,5.38
2023-05-14T14:50:13.548Z,6.22
2023-05-14T14:52:41.217Z,5.88
2023-05-14T14:55:08.432Z,6.25
2023-05-14T14:57:35.318Z,6.60
2023-05-14T15:00:02.675Z,6.40
2023-05-14T15:02:29.898Z,5.63
2023-05-14T15:04:56.761Z,5.93
2023-05-14T15:07:23.532Z,5.57
2023-05-14T15:09:50.235Z,5.13
2023-05-14T15:12:17.076Z,5.03
2023-05-14T15:14:43.879Z,5.53
2023-05-14T15:17:10.714Z,7.97
2023-05-14T15:19:37.519Z,5.65
2023-05-14T15:22:04.578Z,5.32
2023-05-14T15:24:31.421Z,5.10
2023-05-14T15:26:58.293Z,4.75
2023-05-14T15:29:25.020Z,5.72
2023-05-14T15:31:51.872Z,5.60
2023-05-14T15:34:18.585Z,5.35
2023-05-14T15:36:45.372Z,5.55
2023-05-14T15:39:12.914Z,4.82
2023-05-14T15:41:39.820Z,5.60
2023-05-14T15:44:06.637Z,5.18
2023-05-14T15:46:33.547Z,5.72
2023-05-14T15:49:00.416Z,6.30
2023-05-14T15:51:27.145Z,5.22
2023-05-14T15:53:54.204Z,4.95
2023-05-14T15:56:22.167Z,4.53
2023-05-14T15:58:49.257Z,5.20
2023-05-14T16:01:16.111Z,5.43
2023-05-14T16:03:43.040Z,5.40
2023-05-14T16:06:11.248Z,5.13
2023-05-14T16:08:38.227Z,5.47
2023-05-14T16:11:05.479Z,5.57
2023-05-14T16:13:32.283Z,5.30
2023-05-14T16:15:59.667Z,5.18
2023-05-14T16:18:26.728Z,6.03
2023-05-14T16:20:53.649Z,5.20
2023-05-14T16:23:20.483Z,5.40
2023-05-14T16:25:47.252Z,5.60
2023-05-14T16:28:14.223Z,5.22
2023-05-14T16:30:41.078Z,4.90
2023-05-14T16:33:07.932Z,5.28
2023-05-14T16:35:34.820Z,4.90
2023-05-14T16:38:01.729Z,4.90
2023-05-14T16:40:28.593Z,4.95
2023-05-14T16:42:56.459Z,4.88
2023-05-14T16:45:26.173Z,4.95
2023-05-14T16:47:53.101Z,4.90
2023-05-14T16:50:20.022Z,4.97
2023-05-14T16:52:46.682Z,5.45
2023-05-14T16:55:13.498Z,5.47
2023-05-14T16:57:40.233Z,4.80
2023-05-14T17:00:07.675Z,4.68
2023-05-14T17:02:34.562Z,5.03
2023-05-14T17:05:01.515Z,5.35
2023-05-14T17:07:28.279Z,5.63
2023-05-14T17:09:55.168Z,5.18
2023-05-14T17:12:21.971Z,4.78
2023-05-14T17:14:48.728Z,5.68
2023-05-14T17:17:15.470Z,5.75
2023-05-14T17:19:42.401Z,5.90
2023-05-14T17:22:09.126Z,5.60
2023-05-14T17:24:36.688Z,5.53
2023-05-14T17:27:03.859Z,5.32
2023-05-14T17:29:30.696Z,4.80
2023-05-14T17:32:00.753Z,5.30
2023-05-14T17:34:27.652Z,5.05
2023-05-14T17:36:54.315Z,5.35
2023-05-14T17:39:20.964Z,4.65
2023-05-14T17:41:47.691Z,4.60
2023-05-14T17:44:14.380Z,5.63
2023-05-14T17:46:41.874Z,4.60
2023-05-14T17:49:08.703Z,4.75
2023-05-14T17:51:35.393Z,5.22
2023-05-14T17:54:02.154Z,5.25
2023-05-14T17:57:24.129Z,4.78
2023-05-14T17:59:50.775Z,5.68
2023-05-14T18:02:17.510Z,5.00
2023-05-14T18:04:45.468Z,4.57
2023-05-14T18:07:12.273Z,4.38
2023-05-14T18:09:38.985Z,5.22
2023-05-14T18:12:06.096Z,5.03
2023-05-14T18:14:32.882Z,4.82
2023-05-14T18:16:59.661Z,5.07
2023-05-14T18:19:26.415Z,5.80
2023-05-14T18:21:55.334Z,4.78
2023-05-14T18:24:22.302Z,5.63
2023-05-14T18:26:49.122Z,5.10
2023-05-14T18:29:15.988Z,5.45
2023-05-14T18:31:42.638Z,5.57
2023-05-14T18:34:09.361Z,5.50
2023-05-14T18:36:36.058Z,5.60
2023-05-14T18:39:02.827Z,5.45
2023-05-14T18:41:29.826Z,5.80
2023-05-14T18:43:57.913Z,5.50
2023-05-14T18:46:24.943Z,5.47
2023-05-14T18:48:51.669Z,5.35
2023-05-14T18:51:18.397Z,5.28
2023-05-14T18:53:45.224Z,5.53
2023-05-14T18:56:12.068Z,5.60
2023-05-14T18:58:38.784Z,5.55
2023-05-14T19:01:05.619Z,5.88
2023-05-14T19:03:32.499Z,6.25
2023-05-14T19:05:59.541Z,6.13
2023-05-14T19:08:26.183Z,5.80
2023-05-14T19:10:53.004Z,6.07
2023-05-14T19:13:19.693Z,5.93
2023-05-14T19:15:46.426Z,6.40
2023-05-14T19:18:13.963Z,6.15
2023-05-14T19:20:40.871Z,5.53
2023-05-14T19:23:07.841Z,5.63
2023-05-14T19:25:34.760Z,6.70
2023-05-14T19:28:03.722Z,6.85
2023-05-14T19:30:31.302Z,6.80
2023-05-14T19:32:58.362Z,6.55
2023-05-14T19:35:25.759Z,5.30
2023-05-14T19:37:52.987Z,6.53
2023-05-14T19:40:19.915Z,6.65
2023-05-14T19:42:46.914Z,5.78
2023-05-14T19:45:13.779Z,5.55
2023-05-14T19:47:40.702Z,5.38
2023-05-14T19:50:08.542Z,5.65
2023-05-14T19:52:35.423Z,5.15
2023-05-14T19:55:02.172Z,4.97
2023-05-14T19:57:29.328Z,6.40
2023-05-14T19:59:56.150Z,4.72
2023-05-14T20:02:23.124Z,4.57
2023-05-14T20:04:50.040Z,5.00
2023-05-14T20:07:17.374Z,4.43
2023-05-14T20:09:44.300Z,4.28
2023-05-14T20:12:12.894Z,4.68
2023-05-14T20:14:41.096Z,4.38
2023-05-14T20:17:07.946Z,4.13
2023-05-14T20:19:34.836Z,4.95
2023-05-14T20:22:01.533Z,4.78
2023-05-14T20:24:28.662Z,4.95
2023-05-14T20:26:56.679Z,4.63
2023-05-14T20:29:23.430Z,4.90
2023-05-14T20:31:50.319Z,6.70
2023-05-14T20:34:17.045Z,6.90
2023-05-14T20:36:44.418Z,5.78
2023-05-14T20:39:11.704Z,6.30
2023-05-14T20:41:38.491Z,6.32
2023-05-14T20:44:05.295Z,6.32
2023-05-14T20:46:32.093Z,6.65
2023-05-14T20:49:00.671Z,6.10
2023-05-14T20:51:27.352Z,6.32
2023-05-14T20:53:54.099Z,5.68
2023-05-14T20:56:20.796Z,6.20
2023-05-14T20:58:47.614Z,5.03
2023-05-14T21:01:14.524Z,4.60
2023-05-14T21:03:41.367Z,6.65
2023-05-14T21:06:08.263Z,6.63
2023-05-14T21:08:35.793Z,6.00
2023-05-14T21:11:02.625Z,6.03
2023-05-14T21:13:29.398Z,5.10
2023-05-14T21:15:56.197Z,5.57
2023-05-14T21:18:26.600Z,4.15
2023-05-14T21:20:53.389Z,5.07
2023-05-14T21:23:20.564Z,5.82
2023-05-14T21:25:47.300Z,5.38
2023-05-14T21:28:14.145Z,5.63
2023-05-14T21:30:40.920Z,5.65
2023-05-14T21:33:07.712Z,5.57
2023-05-14T21:35:34.541Z,6.07
2023-05-14T21:38:01.219Z,6.00
2023-05-14T21:40:27.948Z,5.50
2023-05-14T21:42:54.619Z,5.75
2023-05-14T21:45:23.389Z,5.78
2023-05-14T21:47:50.596Z,5.15
2023-05-14T21:50:17.418Z,5.10
2023-05-14T21:52:44.139Z,4.43
2023-05-14T21:55:10.987Z,4.50
2023-05-14T21:57:37.838Z,4.28
2023-05-14T22:00:10.025Z,4.55
2023-05-14T22:02:36.868Z,4.03
2023-05-14T22:05:03.778Z,3.97
2023-05-14T22:07:31.731Z,3.70
2023-05-14T22:09:58.585Z,3.95
2023-05-14T22:12:26.201Z,4.53
2023-05-14T22:14:53.083Z,3.75
2023-05-14T22:17:19.865Z,4.03
2023-05-14T22:19:46.578Z,4.07
2023-05-14T22:22:13.254Z,4.18
2023-05-14T22:24:40.165Z,4.65
2023-05-14T22:27:07.011Z,4.40
2023-05-14T22:29:34.137Z,4.30
2023-05-14T22:32:01.706Z,4.55
2023-05-14T22:34:28.593Z,4.82
2023-05-14T22:36:55.366Z,5.18
2023-05-14T22:39:22.180Z,5.07
2023-05-14T22:41:54.851Z,4.97
2023-05-14T22:44:22.450Z,5.00
2023-05-14T22:46:49.433Z,5.68
2023-05-14T22:49:16.671Z,5.03
2023-05-14T22:51:43.706Z,3.92
2023-05-14T22:54:10.740Z,5.10
2023-05-14T22:56:38.023Z,5.05
2023-05-14T22:59:04.861Z,4.93
2023-05-14T23:01:32.093Z,5.82
2023-05-14T23:03:59.012Z,5.55
2023-05-14T23:06:25.752Z,5.20
2023-05-14T23:08:52.537Z,5.10
2023-05-14T23:11:19.356Z,5.50
2023-05-14T23:13:46.220Z,4.68
2023-05-14T23:16:13.008Z,4.60
2023-05-14T23:18:40.021Z,4.65
2023-05-14T23:21:06.978Z,4.75
2023-05-14T23:23:33.788Z,4.60
2023-05-14T23:26:00.642Z,4.88
2023-05-14T23:28:27.411Z,4.95
2023-05-14T23:30:54.290Z,4.95
2023-05-14T23:33:21.057Z,4.15
2023-05-14T23:35:48.431Z,5.18
2023-05-14T23:38:15.405Z,4.57
2023-05-14T23:40:42.315Z,4.70
2023-05-14T23:43:09.077Z,5.65
2023-05-14T23:45:35.914Z,5.80
2023-05-14T23:48:02.825Z,4.93
2023-05-14T23:50:29.706Z,5.18
2023-05-14T23:52:56.461Z,5.07
2023-05-14T23:55:23.522Z,4.80
2023-05-14T23:57:51.153Z,4.68
